< < Back
Terminal Aerodrome Forecast


Current Version              Previous Versions:   1  2  3  4  5  6  7  8  9  

Terminal Aerodrome Forecast

692
FTUS42 KTAE 020529
TAFVLD
TAF
KVLD 020529Z 0206/0306 VRB03KT P6SM SCT250
     FM021000 17004KT 4SM BR SCT004
     FM021300 18005KT P6SM SCT040
     FM022000 19008KT P6SM VCTS BKN040CB
     FM030000 00000KT P6SM OVC250=

Latest METAR

728
SAUS70 KWBC 030500 RRD
MTRVLD
METAR KVLD 030453Z AUTO 00000KT 10SM CLR 21/20 A2995 RMK AO2 SLP148
T02060200 403060189


USA.gov is the U.S. government's official web portal to all federal, state and local government web resources and services.